Time;durP1;ratioP1;P1;durP2;ratioP2;P2;SDS_P1;SDS_P2;PMS_P1;PMS_P2;Temp;Humidity;BMP_temperature;BMP_pressure;BME280_temperature;BME280_humidity;BME280_pressure;Samples;Min_cycle;Max_cycle;Signal;HPM_P1;HPM_P2
2023/02/15 00:01:40;;;;;;;24.20;14.30;;;1.60;99.90;;;;;;4954643;29;20185;-77
2023/02/15 00:04:06;;;;;;;19.43;14.57;;;1.60;99.90;;;;;;4955650;28;20220;-78
2023/02/15 00:06:33;;;;;;;31.63;14.90;;;1.60;99.90;;;;;;4954846;29;20507;-78
2023/02/15 00:08:59;;;;;;;26.77;14.13;;;1.60;99.90;;;;;;4954501;29;20219;-78
2023/02/15 00:11:40;;;;;;;27.97;13.60;;;1.60;99.90;;;;;;4954606;29;20272;-78
2023/02/15 00:14:21;;;;;;;24.90;13.07;;;1.60;99.90;;;;;;4954343;29;20193;-78
2023/02/15 00:16:49;;;;;;;16.47;12.30;;;1.60;99.90;;;;;;4954642;29;20169;-79
2023/02/15 00:19:17;;;;;;;17.43;13.03;;;1.50;99.90;;;;;;4954451;29;20189;-79
2023/02/15 00:21:43;;;;;;;16.13;12.97;;;1.50;99.90;;;;;;4955732;28;20205;-79
2023/02/15 00:24:12;;;;;;;16.27;12.27;;;1.50;99.90;;;;;;4955618;28;20173;-79
2023/02/15 00:26:39;;;;;;;17.30;13.33;;;1.50;99.90;;;;;;4954453;29;20176;-78
2023/02/15 00:29:06;;;;;;;29.47;13.93;;;1.50;99.90;;;;;;4953641;29;20683;-79
2023/02/15 00:31:32;;;;;;;23.63;13.67;;;1.50;99.90;;;;;;4955639;28;20188;-78
2023/02/15 00:34:20;;;;;;;43.97;14.53;;;1.50;99.90;;;;;;4955735;28;20231;-79
2023/02/15 00:36:47;;;;;;;19.97;14.00;;;1.40;99.90;;;;;;4955636;28;20201;-79
2023/02/15 00:39:13;;;;;;;19.13;14.53;;;1.40;99.90;;;;;;4954073;29;20229;-79
2023/02/15 00:41:38;;;;;;;18.57;14.27;;;1.40;99.90;;;;;;4955426;28;20916;-79
2023/02/15 00:44:05;;;;;;;36.53;14.80;;;1.40;99.90;;;;;;4955320;29;20240;-79
2023/02/15 00:46:31;;;;;;;20.43;13.83;;;1.40;99.90;;;;;;4955621;28;20204;-79
2023/02/15 00:48:57;;;;;;;25.37;14.93;;;1.30;99.90;;;;;;4954049;29;20224;-79
2023/02/15 00:51:23;;;;;;;28.90;14.40;;;1.30;99.90;;;;;;4955152;28;20228;-79
2023/02/15 00:53:49;;;;;;;20.30;13.97;;;1.20;99.90;;;;;;4955207;29;20540;-79
2023/02/15 00:58:50;;;;;;;23.57;14.07;;;1.10;99.90;;;;;;4991704;23;20304;-80
2023/02/15 01:01:18;;;;;;;20.97;14.90;;;1.10;99.90;;;;;;4940050;29;20209;-80
2023/02/15 01:03:46;;;;;;;20.33;14.67;;;1.10;99.90;;;;;;4938375;29;20190;-79
2023/02/15 01:06:13;;;;;;;22.70;14.90;;;1.10;99.90;;;;;;4924842;29;20198;-79
2023/02/15 01:08:39;;;;;;;21.33;14.63;;;1.00;99.90;;;;;;4920895;29;20575;-79
2023/02/15 01:11:07;;;;;;;21.23;15.03;;;1.00;99.90;;;;;;4938201;29;20221;-80
2023/02/15 01:13:33;;;;;;;19.73;14.70;;;0.90;99.90;;;;;;4938471;29;20269;-80
2023/02/15 01:15:59;;;;;;;21.63;15.40;;;1.00;99.90;;;;;;4939885;29;20181;-80
2023/02/15 01:18:24;;;;;;;19.17;13.50;;;1.00;99.90;;;;;;4938439;29;20609;-80
2023/02/15 01:20:50;;;;;;;21.97;15.13;;;1.00;99.90;;;;;;4939736;29;20174;-80
2023/02/15 01:23:16;;;;;;;22.00;14.97;;;0.90;99.90;;;;;;4938457;29;20224;-80
2023/02/15 01:25:42;;;;;;;20.00;14.33;;;0.90;99.90;;;;;;4939836;29;20194;-79
2023/02/15 01:28:08;;;;;;;19.60;14.30;;;0.90;99.90;;;;;;4939135;29;20186;-79
2023/02/15 01:30:33;;;;;;;20.80;14.10;;;0.90;99.90;;;;;;4939430;29;20219;-79
2023/02/15 01:33:00;;;;;;;20.97;14.43;;;0.90;99.90;;;;;;4939627;29;20259;-79
2023/02/15 01:35:27;;;;;;;20.63;14.33;;;0.90;99.90;;;;;;4939485;29;20605;-79
2023/02/15 01:37:53;;;;;;;23.83;15.63;;;0.80;99.90;;;;;;4939411;29;20185;-79
2023/02/15 01:40:19;;;;;;;22.57;14.70;;;0.90;99.90;;;;;;4939389;29;20170;-79
2023/02/15 01:42:45;;;;;;;22.27;14.43;;;0.90;99.90;;;;;;4937881;29;20194;-79
2023/02/15 01:45:31;;;;;;;23.60;15.63;;;0.90;99.90;;;;;;4938195;29;20640;-79
2023/02/15 01:48:22;;;;;;;20.23;14.60;;;1.00;99.90;;;;;;4939277;29;20190;-79
2023/02/15 01:51:01;;;;;;;18.30;12.93;;;1.00;99.90;;;;;;4939255;29;20637;-79
2023/02/15 01:53:42;;;;;;;19.43;13.40;;;0.70;99.90;;;;;;4939165;29;20169;-79
2023/02/15 01:56:30;;;;;;;17.93;13.23;;;0.40;99.90;;;;;;4939197;29;20181;-80
2023/02/15 01:59:00;;;;;;;18.33;12.70;;;0.20;99.90;;;;;;4938713;29;20229;-79
2023/02/15 02:01:27;;;;;;;20.10;14.03;;;0.20;99.90;;;;;;4939048;29;20680;-79
2023/02/15 02:04:04;;;;;;;20.07;14.33;;;0.30;99.90;;;;;;4938894;29;20693;-79
2023/02/15 02:06:31;;;;;;;18.07;13.97;;;0.30;99.90;;;;;;4939031;29;20190;-79
2023/02/15 02:08:57;;;;;;;22.23;14.57;;;0.20;99.90;;;;;;4938369;29;20623;-79
2023/02/15 02:11:24;;;;;;;20.30;14.00;;;0.20;99.90;;;;;;4938873;29;20208;-79
2023/02/15 02:13:52;;;;;;;17.47;13.57;;;0.20;99.90;;;;;;4938756;29;20174;-80
2023/02/15 02:16:37;;;;;;;20.30;14.57;;;0.30;99.90;;;;;;4938972;29;20628;-79
2023/02/15 02:19:09;;;;;;;21.93;15.27;;;0.30;99.90;;;;;;4938794;29;20166;-79
2023/02/15 02:22:11;;;;;;;21.20;15.83;;;0.40;99.90;;;;;;4938675;29;20612;-80
2023/02/15 02:25:11;;;;;;;26.40;16.17;;;0.40;99.90;;;;;;4937551;29;20192;-80
2023/02/15 02:28:06;;;;;;;19.67;13.57;;;0.50;99.90;;;;;;4937050;29;20186;-80
2023/02/15 02:30:53;;;;;;;19.70;12.50;;;0.50;99.90;;;;;;4936190;29;20213;-80
2023/02/15 02:33:42;;;;;;;16.00;11.93;;;0.50;99.90;;;;;;4938523;29;20161;-80
2023/02/15 02:36:18;;;;;;;17.70;12.57;;;0.40;99.90;;;;;;4937074;29;20192;-79
2023/02/15 02:38:49;;;;;;;18.30;13.10;;;0.30;99.90;;;;;;4938488;29;20165;-80
2023/02/15 02:41:29;;;;;;;20.40;13.77;;;0.40;99.90;;;;;;4938333;29;20582;-80
2023/02/15 02:44:10;;;;;;;39.37;14.93;;;0.40;99.90;;;;;;4938367;29;20568;-80
2023/02/15 02:47:14;;;;;;;34.40;14.83;;;0.40;99.90;;;;;;4938230;29;20247;-80
2023/02/15 02:49:42;;;;;;;28.50;15.53;;;0.40;99.90;;;;;;4934966;29;20229;-80
2023/02/15 02:52:35;;;;;;;39.93;16.07;;;0.40;99.90;;;;;;4938131;29;20166;-80
2023/02/15 02:55:05;;;;;;;41.37;14.60;;;0.40;99.90;;;;;;4938144;29;20654;-80
2023/02/15 02:57:33;;;;;;;34.77;15.67;;;0.30;99.90;;;;;;4937846;29;20225;-81
2023/02/15 03:00:02;;;;;;;24.07;16.00;;;0.30;99.90;;;;;;4937018;29;20557;-80
2023/02/15 03:02:34;;;;;;;45.20;16.57;;;0.30;99.90;;;;;;4937891;29;20621;-80
2023/02/15 03:05:09;;;;;;;30.60;15.90;;;0.30;99.90;;;;;;4937570;29;20169;-80
2023/02/15 03:07:35;;;;;;;30.37;14.57;;;0.40;99.90;;;;;;4937896;29;20166;-80
2023/02/15 03:10:05;;;;;;;46.10;16.13;;;0.40;99.90;;;;;;4937685;29;20577;-80
2023/02/15 03:12:37;;;;;;;27.83;15.20;;;0.40;99.90;;;;;;4937521;29;20178;-81
2023/02/15 03:18:25;;;;;;;39.00;15.90;;;0.40;99.90;;;;;;4938071;29;20696;-80
2023/02/15 03:20:53;;;;;;;32.43;16.50;;;0.30;99.90;;;;;;4936885;29;20269;-80
2023/02/15 03:23:22;;;;;;;41.77;16.83;;;0.30;99.90;;;;;;4936281;29;20174;-80
2023/02/15 03:25:52;;;;;;;74.37;15.53;;;0.40;99.90;;;;;;4935618;29;20200;-80
2023/02/15 03:28:42;;;;;;;40.27;14.87;;;0.40;99.90;;;;;;4937108;29;20188;-80
2023/02/15 03:31:09;;;;;;;33.87;13.03;;;0.30;99.90;;;;;;4937389;29;20201;-80
2023/02/15 03:33:40;;;;;;;33.40;14.77;;;0.30;99.90;;;;;;4937305;29;20554;-78
2023/02/15 03:36:23;;;;;;;32.07;14.93;;;0.30;99.90;;;;;;4937441;29;20167;-80
2023/02/15 03:39:25;;;;;;;21.07;14.50;;;0.30;99.90;;;;;;4935907;29;20694;-81
2023/02/15 03:42:11;;;;;;;44.20;15.63;;;0.30;99.90;;;;;;4933760;29;20213;-81
2023/02/15 03:44:55;;;;;;;21.53;14.63;;;0.30;99.90;;;;;;4937216;29;20161;-80
2023/02/15 03:47:28;;;;;;;22.43;14.50;;;0.30;99.90;;;;;;4937256;29;20178;-81
2023/02/15 03:51:33;;;;;;;24.73;13.97;;;0.30;99.90;;;;;;4935594;29;20708;-80
2023/02/15 03:52:54;;;;;;;24.60;15.43;;;0.30;99.90;;;;;;4936833;29;20181;-81
2023/02/15 03:55:20;;;;;;;24.63;15.40;;;0.20;99.90;;;;;;4951698;29;20228;-81
2023/02/15 04:03:39;;;;;;;25.30;14.80;;;0.30;99.90;;;;;;4936820;29;20181;-80
2023/02/15 04:06:05;;;;;;;25.67;15.90;;;0.20;99.90;;;;;;4935659;29;20188;-81
2023/02/15 04:11:15;;;;;;;27.30;15.30;;;0.20;99.90;;;;;;4936878;29;20208;-81
2023/02/15 04:13:42;;;;;;;46.83;14.30;;;0.10;99.90;;;;;;4935150;29;20213;-81
2023/02/15 04:16:07;;;;;;;23.57;13.33;;;0.10;99.90;;;;;;4936746;29;20186;-81
2023/02/15 04:26:59;;;;;;;19.73;12.83;;;-0.20;99.90;;;;;;4936621;29;20649;-80
2023/02/15 04:29:26;;;;;;;20.33;13.47;;;-0.30;99.90;;;;;;4934934;29;20284;-79
2023/02/15 04:31:54;;;;;;;17.57;12.93;;;-0.30;99.90;;;;;;4936543;29;20186;-80
2023/02/15 04:34:20;;;;;;;18.27;12.57;;;-0.40;99.90;;;;;;4936428;29;20193;-80
2023/02/15 04:36:45;;;;;;;27.27;11.53;;;-0.40;99.90;;;;;;4936507;29;20186;-80
2023/02/15 04:39:16;;;;;;;20.83;12.40;;;-0.40;99.90;;;;;;4936163;29;20202;-80
2023/02/15 04:41:42;;;;;;;18.43;12.60;;;-0.40;99.90;;;;;;4935071;29;20525;-80
2023/02/15 04:44:07;;;;;;;18.47;12.33;;;-0.40;99.90;;;;;;4936277;29;20257;-80
2023/02/15 04:46:33;;;;;;;17.77;12.53;;;-0.40;99.90;;;;;;4936394;29;20213;-80
2023/02/15 04:48:59;;;;;;;19.17;13.00;;;-0.50;99.90;;;;;;4936174;29;20264;-81
2023/02/15 04:51:25;;;;;;;18.97;12.97;;;-0.60;99.90;;;;;;4936204;29;20217;-80
2023/02/15 04:53:52;;;;;;;16.80;12.17;;;-0.50;99.90;;;;;;4935034;29;20201;-80
2023/02/15 04:56:19;;;;;;;18.27;12.93;;;-0.60;99.90;;;;;;4936396;29;20519;-80
2023/02/15 04:58:44;;;;;;;16.83;12.03;;;-0.50;99.90;;;;;;4935789;29;20230;-80
2023/02/15 05:01:10;;;;;;;18.93;12.20;;;-0.50;99.90;;;;;;4936117;29;20217;-80
2023/02/15 05:03:37;;;;;;;18.70;12.83;;;-0.50;99.90;;;;;;4934528;29;20181;-80
2023/02/15 05:06:03;;;;;;;16.13;11.07;;;-0.40;99.90;;;;;;4934812;29;20197;-80
2023/02/15 05:08:30;;;;;;;17.80;11.83;;;-0.30;99.90;;;;;;4936458;29;20201;-81
2023/02/15 05:10:56;;;;;;;16.00;11.93;;;-0.30;99.90;;;;;;4935850;29;20608;-82
2023/02/15 05:13:22;;;;;;;15.17;10.80;;;-0.30;99.90;;;;;;4934847;29;20170;-81
2023/02/15 05:15:49;;;;;;;15.97;11.17;;;-0.30;99.90;;;;;;4934942;29;20193;-81
2023/02/15 05:18:16;;;;;;;14.87;10.57;;;-0.30;99.90;;;;;;4936049;29;20257;-81
2023/02/15 05:20:42;;;;;;;16.90;11.73;;;-0.30;99.90;;;;;;4935648;29;20209;-80
2023/02/15 05:23:08;;;;;;;18.00;12.30;;;-0.40;99.90;;;;;;4935400;29;20163;-82
2023/02/15 05:28:20;;;;;;;20.17;11.73;;;-0.30;99.90;;;;;;4936062;29;20254;-81
2023/02/15 05:30:56;;;;;;;18.50;12.00;;;-0.30;99.90;;;;;;4934733;29;20515;-81
2023/02/15 05:33:22;;;;;;;17.57;10.67;;;-0.30;99.90;;;;;;4935937;29;20677;-81
2023/02/15 05:35:47;;;;;;;16.50;11.27;;;-0.50;99.90;;;;;;4936046;29;20260;-81
2023/02/15 05:38:13;;;;;;;16.33;11.43;;;-0.40;99.90;;;;;;4921586;29;20216;-82
2023/02/15 05:40:39;;;;;;;18.70;12.30;;;-0.50;99.90;;;;;;4916742;29;20222;-81
2023/02/15 05:43:05;;;;;;;20.90;11.97;;;-0.40;99.90;;;;;;4926136;29;20245;-81
2023/02/15 05:45:30;;;;;;;18.43;11.77;;;-0.40;99.90;;;;;;4939326;29;20199;-81
2023/02/15 05:47:57;;;;;;;17.87;11.43;;;-0.60;99.90;;;;;;4938085;29;20190;-81
2023/02/15 05:50:23;;;;;;;18.93;11.57;;;-0.70;99.90;;;;;;4939264;29;20200;-82
2023/02/15 05:52:49;;;;;;;15.50;11.20;;;-0.70;99.90;;;;;;4933907;29;20525;-81
2023/02/15 05:55:15;;;;;;;13.97;10.50;;;-0.60;99.90;;;;;;4919986;29;20167;-81
2023/02/15 05:57:41;;;;;;;15.33;10.97;;;-0.60;99.90;;;;;;4919628;29;20314;-81
2023/02/15 06:00:08;;;;;;;16.93;11.37;;;-0.60;99.90;;;;;;4919963;29;20586;-81
2023/02/15 06:02:37;;;;;;;15.87;11.20;;;-0.70;99.90;;;;;;4931835;29;20182;-82
2023/02/15 06:05:04;;;;;;;15.33;11.63;;;-0.80;99.90;;;;;;4934105;29;20194;-81
2023/02/15 06:07:30;;;;;;;16.97;11.87;;;-1.00;99.90;;;;;;4935086;29;20192;-82
2023/02/15 06:09:55;;;;;;;20.93;12.33;;;-1.10;99.90;;;;;;4937490;29;20182;-80
2023/02/15 06:12:21;;;;;;;20.80;12.70;;;-1.20;99.90;;;;;;4937517;29;20186;-81
2023/02/15 06:14:47;;;;;;;18.93;12.10;;;-1.20;99.90;;;;;;4938544;29;20210;-81
2023/02/15 06:17:12;;;;;;;18.30;12.47;;;-1.20;99.90;;;;;;4937730;29;20641;-82
2023/02/15 06:19:38;;;;;;;18.63;12.87;;;-1.10;99.90;;;;;;4938446;29;20209;-82
2023/02/15 06:22:06;;;;;;;20.47;12.50;;;-1.00;99.90;;;;;;4937492;29;20190;-82
2023/02/15 06:24:32;;;;;;;60.10;13.00;;;-1.10;99.90;;;;;;4938542;29;20507;-82
2023/02/15 06:26:57;;;;;;;32.93;12.47;;;-1.10;99.90;;;;;;4938644;29;20186;-81
2023/02/15 06:29:23;;;;;;;19.80;12.37;;;-1.10;99.90;;;;;;4936935;29;20186;-82
2023/02/15 06:31:49;;;;;;;22.07;12.80;;;-1.10;99.90;;;;;;4937348;29;20573;-82
2023/02/15 06:34:15;;;;;;;20.27;13.23;;;-1.10;99.90;;;;;;4938972;29;20189;-82
2023/02/15 06:36:41;;;;;;;18.90;12.50;;;-1.10;99.90;;;;;;4938635;29;20201;-81
2023/02/15 06:39:07;;;;;;;19.13;12.43;;;-1.00;99.90;;;;;;4936966;29;20252;-82
2023/02/15 06:41:33;;;;;;;17.90;12.77;;;-1.00;99.90;;;;;;4938445;29;20190;-82
2023/02/15 06:43:58;;;;;;;18.30;12.60;;;-1.00;99.90;;;;;;4938050;29;20186;-81
2023/02/15 06:46:24;;;;;;;19.77;12.50;;;-1.00;99.90;;;;;;4938373;29;20264;-81
2023/02/15 06:48:50;;;;;;;15.83;11.30;;;-1.00;99.90;;;;;;4938346;29;20644;-82
2023/02/15 06:51:17;;;;;;;15.53;10.97;;;-1.00;99.90;;;;;;4936964;29;20637;-81
2023/02/15 06:53:43;;;;;;;16.77;12.20;;;-0.90;99.90;;;;;;4937513;29;20175;-81
2023/02/15 06:56:09;;;;;;;15.23;10.70;;;-1.00;99.90;;;;;;4937790;29;20237;-81
2023/02/15 06:58:45;;;;;;;16.37;11.23;;;-0.90;99.90;;;;;;4937621;29;20257;-82
2023/02/15 07:01:12;;;;;;;16.43;11.97;;;-0.90;99.90;;;;;;4938123;29;20166;-82
2023/02/15 07:03:37;;;;;;;16.57;11.13;;;-0.90;99.90;;;;;;4937829;29;20170;-82
2023/02/15 07:06:07;;;;;;;15.90;11.37;;;-0.90;99.90;;;;;;4938028;29;20178;-82
2023/02/15 07:08:34;;;;;;;17.80;11.43;;;-1.00;99.90;;;;;;4938113;29;20170;-82
2023/02/15 07:13:46;;;;;;;20.47;13.00;;;-1.00;99.90;;;;;;4937978;29;20248;-82
2023/02/15 07:16:12;;;;;;;20.37;12.70;;;-1.00;99.90;;;;;;4937807;29;20605;-82
2023/02/15 07:18:38;;;;;;;17.90;11.77;;;-0.90;99.90;;;;;;4937707;29;20173;-82
2023/02/15 07:21:07;;;;;;;20.87;13.37;;;-0.90;99.90;;;;;;4936197;29;20197;-82
2023/02/15 07:23:38;;;;;;;20.37;13.00;;;-0.90;99.90;;;;;;4937642;29;20166;-82
2023/02/15 07:26:05;;;;;;;18.73;13.27;;;-0.80;99.90;;;;;;4954466;28;20192;-82
2023/02/15 07:28:31;;;;;;;21.20;13.73;;;-0.80;99.90;;;;;;4956469;29;20217;-81
2023/02/15 07:30:57;;;;;;;19.13;12.97;;;-0.80;99.90;;;;;;4956560;29;20204;-81
2023/02/15 07:33:23;;;;;;;18.10;12.87;;;-0.70;99.90;;;;;;4956541;29;20213;-81
2023/02/15 07:35:57;;;;;;;23.30;13.13;;;-0.70;99.90;;;;;;4956567;29;20173;-82
2023/02/15 07:38:25;;;;;;;19.17;12.80;;;-0.60;99.90;;;;;;4955172;29;20181;-82
2023/02/15 07:40:51;;;;;;;22.43;14.53;;;-0.60;99.90;;;;;;4956418;29;20260;-81
2023/02/15 07:43:17;;;;;;;30.67;18.00;;;-0.50;99.90;;;;;;4954693;29;20205;-82
2023/02/15 07:45:43;;;;;;;33.33;18.47;;;-0.50;99.90;;;;;;4936250;29;20610;-82
2023/02/15 07:48:09;;;;;;;23.63;15.17;;;-0.50;99.90;;;;;;4937113;29;20174;-82
2023/02/15 07:50:35;;;;;;;19.97;13.20;;;-0.40;99.90;;;;;;4937141;29;20180;-82
2023/02/15 07:53:04;;;;;;;20.80;13.37;;;-0.40;99.90;;;;;;4937016;29;20665;-83
2023/02/15 07:55:30;;;;;;;17.07;11.73;;;-0.30;99.90;;;;;;4937268;29;20614;-82
2023/02/15 07:57:55;;;;;;;19.50;13.03;;;-0.20;99.90;;;;;;4936691;29;20218;-81
2023/02/15 08:00:24;;;;;;;20.10;12.50;;;-0.10;99.90;;;;;;4935201;29;20225;-81
2023/02/15 08:03:13;;;;;;;18.63;12.53;;;-0.10;99.90;;;;;;4937033;29;21075;-82
2023/02/15 08:05:43;;;;;;;19.47;13.43;;;-0.10;99.90;;;;;;4936203;29;20179;-82
2023/02/15 08:13:55;;;;;;;23.37;15.07;;;-0.10;99.90;;;;;;4935332;29;20188;-82
2023/02/15 08:16:30;;;;;;;25.40;13.73;;;0.00;99.90;;;;;;4935389;29;20193;-81
2023/02/15 08:18:58;;;;;;;25.77;15.43;;;0.00;99.90;;;;;;4935201;29;20662;-82
2023/02/15 08:21:26;;;;;;;31.13;15.33;;;0.00;99.90;;;;;;4936420;29;20185;-82
2023/02/15 08:23:52;;;;;;;25.50;14.93;;;0.10;99.90;;;;;;4936733;29;20184;-81
2023/02/15 08:26:18;;;;;;;21.23;14.47;;;0.10;99.90;;;;;;4936633;29;20183;-81
2023/02/15 08:28:44;;;;;;;26.53;14.80;;;0.20;99.90;;;;;;4936517;29;20182;-81
2023/02/15 08:31:13;;;;;;;23.43;14.67;;;0.30;99.90;;;;;;4936514;29;20530;-81
2023/02/15 08:33:41;;;;;;;23.27;15.37;;;0.30;99.90;;;;;;4936445;29;20185;-80
2023/02/15 08:36:13;;;;;;;23.97;14.53;;;0.50;99.90;;;;;;4936579;29;20181;-80
2023/02/15 08:38:39;;;;;;;23.47;14.80;;;0.50;99.90;;;;;;4936404;29;20166;-80
2023/02/15 08:41:18;;;;;;;22.03;14.77;;;0.50;99.90;;;;;;4936310;29;20205;-80
2023/02/15 08:43:46;;;;;;;29.40;14.80;;;0.60;99.90;;;;;;4936145;29;20688;-80
2023/02/15 08:46:14;;;;;;;22.60;15.03;;;0.70;99.90;;;;;;4936425;29;20282;-79
2023/02/15 08:48:40;;;;;;;22.40;15.00;;;0.80;99.90;;;;;;4936353;29;20189;-79
2023/02/15 08:51:10;;;;;;;23.93;15.20;;;0.90;99.90;;;;;;4936154;29;20185;-79
2023/02/15 08:53:38;;;;;;;27.80;16.07;;;0.90;99.90;;;;;;4936331;29;20174;-79
2023/02/15 08:56:03;;;;;;;20.97;14.37;;;0.90;99.90;;;;;;4936368;29;20237;-79
2023/02/15 08:58:30;;;;;;;24.37;15.03;;;1.00;99.90;;;;;;4936155;29;20230;-78
2023/02/15 09:00:56;;;;;;;23.57;15.23;;;1.10;99.90;;;;;;4935732;29;20312;-78
2023/02/15 09:03:23;;;;;;;22.63;15.53;;;1.20;99.90;;;;;;4934903;29;20226;-78
2023/02/15 09:05:49;;;;;;;25.23;15.27;;;1.30;99.90;;;;;;4936255;29;20174;-79
2023/02/15 09:08:14;;;;;;;25.27;15.97;;;1.40;99.90;;;;;;4936211;29;20713;-78
2023/02/15 09:10:40;;;;;;;21.40;15.57;;;1.50;99.90;;;;;;4935974;29;20174;-79
2023/02/15 09:13:06;;;;;;;22.20;14.80;;;1.60;99.90;;;;;;4936106;29;20491;-78
2023/02/15 09:15:32;;;;;;;23.73;15.03;;;1.60;99.90;;;;;;4936070;29;20225;-78
2023/02/15 09:18:01;;;;;;;25.07;15.40;;;1.70;99.90;;;;;;4937219;29;20284;-79
2023/02/15 09:20:27;;;;;;;26.43;15.60;;;1.80;99.90;;;;;;4939529;29;20217;-79
2023/02/15 09:22:54;;;;;;;24.67;15.23;;;1.90;99.90;;;;;;4939704;29;20201;-78
2023/02/15 09:25:20;;;;;;;23.97;15.80;;;2.00;99.90;;;;;;4939790;29;20257;-78
2023/02/15 09:27:45;;;;;;;21.40;14.23;;;2.10;99.90;;;;;;4939912;29;20265;-79
2023/02/15 09:30:12;;;;;;;24.87;14.93;;;2.10;99.90;;;;;;4939231;29;20515;-79
2023/02/15 09:32:37;;;;;;;21.23;13.67;;;2.10;99.90;;;;;;4938245;29;20685;-79
2023/02/15 09:35:03;;;;;;;22.27;13.80;;;2.20;99.90;;;;;;4939436;29;20253;-78
2023/02/15 09:37:32;;;;;;;22.20;14.97;;;2.30;99.90;;;;;;4939554;29;20182;-80
2023/02/15 09:39:58;;;;;;;19.73;13.20;;;2.40;99.90;;;;;;4939256;29;20210;-80
2023/02/15 09:42:47;;;;;;;21.23;14.20;;;2.50;99.90;;;;;;4939374;29;20182;-78
2023/02/15 09:45:13;;;;;;;21.53;13.60;;;2.50;99.90;;;;;;4939062;29;20209;-80
2023/02/15 09:48:12;;;;;;;23.10;14.07;;;2.60;99.90;;;;;;4939400;29;20185;-78
2023/02/15 09:50:50;;;;;;;24.40;13.93;;;2.70;99.90;;;;;;4939025;29;20181;-79
2023/02/15 09:53:42;;;;;;;23.03;14.00;;;2.80;99.90;;;;;;4937895;29;20551;-78
2023/02/15 09:56:22;;;;;;;22.70;13.47;;;2.90;99.90;;;;;;4939368;29;20673;-78
2023/02/15 09:58:51;;;;;;;22.20;13.93;;;3.00;99.90;;;;;;4938574;29;20233;-78
2023/02/15 10:01:36;;;;;;;17.60;11.10;;;3.10;99.90;;;;;;4937626;29;20233;-79
2023/02/15 10:04:11;;;;;;;16.83;11.13;;;3.30;99.90;;;;;;4939088;29;20174;-78
2023/02/15 10:07:01;;;;;;;15.37;10.37;;;3.40;99.90;;;;;;4939062;29;20174;-77
2023/02/15 10:09:44;;;;;;;17.60;10.87;;;3.50;99.90;;;;;;4938945;29;20166;-79
2023/02/15 10:12:34;;;;;;;14.97;10.53;;;3.60;99.90;;;;;;4938843;29;20182;-77
2023/02/15 10:15:11;;;;;;;17.13;10.10;;;3.70;99.90;;;;;;4938706;29;20261;-79
2023/02/15 10:17:58;;;;;;;13.57;9.93;;;3.80;99.90;;;;;;4938931;29;20197;-78
2023/02/15 10:20:57;;;;;;;17.17;10.57;;;4.00;99.90;;;;;;4937247;29;20217;-78
2023/02/15 10:23:48;;;;;;;13.60;9.07;;;4.10;99.90;;;;;;4937520;29;20264;-78
2023/02/15 10:26:35;;;;;;;14.33;9.60;;;4.30;99.90;;;;;;4938632;29;20252;-78
2023/02/15 10:29:07;;;;;;;14.03;9.10;;;4.40;99.90;;;;;;4937929;29;20167;-80
2023/02/15 10:31:52;;;;;;;14.27;9.20;;;4.50;99.90;;;;;;4938559;29;20174;-77
2023/02/15 10:34:24;;;;;;;10.47;7.20;;;4.50;99.90;;;;;;4938907;29;20174;-80
2023/02/15 10:37:05;;;;;;;10.10;7.10;;;4.70;99.90;;;;;;4938484;29;20172;-78
2023/02/15 10:39:38;;;;;;;11.37;7.43;;;4.80;99.90;;;;;;4938185;29;20201;-78
2023/02/15 10:42:16;;;;;;;10.20;7.57;;;4.90;99.90;;;;;;4938737;29;20197;-78
2023/02/15 10:45:23;;;;;;;10.87;7.37;;;5.10;99.90;;;;;;4938137;29;20193;-78
2023/02/15 10:48:17;;;;;;;10.00;7.13;;;5.20;99.90;;;;;;4876553;29;20238;-79
2023/02/15 10:50:53;;;;;;;10.80;7.57;;;5.30;99.90;;;;;;4938084;29;20214;-81
2023/02/15 10:54:00;;;;;;;10.57;7.90;;;5.40;99.90;;;;;;4934438;29;20182;-78
2023/02/15 10:57:03;;;;;;;13.17;7.67;;;5.50;99.90;;;;;;4926603;29;20186;-79
2023/02/15 11:00:02;;;;;;;10.40;6.60;;;5.50;99.90;;;;;;4937439;29;20324;-79
2023/02/15 11:02:45;;;;;;;8.07;5.70;;;5.50;99.90;;;;;;4929189;29;20513;-79
2023/02/15 11:05:32;;;;;;;11.10;6.50;;;5.70;99.90;;;;;;4917401;29;20577;-79
2023/02/15 11:08:00;;;;;;;9.77;6.77;;;5.80;99.90;;;;;;4918865;29;20194;-79
2023/02/15 11:10:26;;;;;;;10.97;6.77;;;6.10;99.90;;;;;;4918778;29;20234;-79
2023/02/15 11:12:52;;;;;;;8.77;5.90;;;6.20;99.90;;;;;;4918572;29;20565;-79
2023/02/15 11:15:35;;;;;;;8.93;6.07;;;6.40;99.90;;;;;;4933720;29;20185;-79
2023/02/15 11:18:26;;;;;;;11.10;6.17;;;6.70;99.90;;;;;;4930175;29;20171;-79
2023/02/15 11:21:01;;;;;;;8.27;5.63;;;6.90;99.90;;;;;;4925174;29;20229;-80
2023/02/15 11:23:28;;;;;;;9.03;5.63;;;6.90;99.90;;;;;;4927704;29;20661;-79
2023/02/15 11:25:59;;;;;;;8.67;6.13;;;6.90;99.90;;;;;;4937850;29;20182;-79
2023/02/15 11:28:41;;;;;;;9.10;6.30;;;7.00;99.90;;;;;;4937694;29;20174;-80
2023/02/15 11:31:17;;;;;;;7.27;5.10;;;7.20;99.90;;;;;;4937101;29;20221;-80
2023/02/15 11:33:53;;;;;;;7.90;5.40;;;7.30;99.90;;;;;;4937532;29;20201;-79
2023/02/15 11:36:27;;;;;;;8.63;5.00;;;7.50;99.90;;;;;;4937583;29;20158;-79
2023/02/15 11:38:59;;;;;;;6.07;4.90;;;7.50;99.90;;;;;;4936529;29;20182;-79
2023/02/15 11:41:29;;;;;;;6.63;4.87;;;7.60;99.90;;;;;;4936501;29;20172;-79
2023/02/15 11:43:58;;;;;;;7.30;5.60;;;7.60;99.90;;;;;;4936121;29;20186;-80
2023/02/15 11:46:24;;;;;;;7.93;5.20;;;7.70;99.90;;;;;;4936823;29;20253;-79
2023/02/15 11:48:50;;;;;;;7.87;4.83;;;7.70;99.90;;;;;;4937126;29;20693;-80
2023/02/15 11:51:20;;;;;;;9.30;5.40;;;7.90;99.90;;;;;;4937019;29;20174;-80
2023/02/15 11:53:46;;;;;;;6.77;4.40;;;8.10;99.90;;;;;;4936898;29;20178;-79
2023/02/15 11:56:17;;;;;;;7.73;5.20;;;8.20;99.90;;;;;;4937133;29;20218;-79
2023/02/15 11:58:55;;;;;;;6.63;4.87;;;8.30;99.90;;;;;;4936733;29;20244;-80
2023/02/15 12:01:40;;;;;;;8.83;5.80;;;8.20;99.90;;;;;;4935529;29;20636;-80
2023/02/15 12:04:26;;;;;;;10.43;5.27;;;8.20;99.90;;;;;;4936681;29;20532;-79
2023/02/15 12:07:02;;;;;;;6.30;5.20;;;8.10;99.90;;;;;;4936890;29;20172;-80
2023/02/15 12:10:06;;;;;;;8.07;4.90;;;8.30;99.90;;;;;;4935498;29;20204;-79
2023/02/15 12:12:35;;;;;;;7.38;4.88;;;8.40;99.90;;;;;;4936553;29;20158;-80
2023/02/15 12:15:03;;;;;;;8.00;5.25;;;8.40;99.90;;;;;;4936376;29;20179;-79
2023/02/15 12:17:33;;;;;;;9.20;5.43;;;8.50;99.90;;;;;;4936690;29;20173;-79
2023/02/15 12:20:20;;;;;;;6.57;4.83;;;8.40;99.90;;;;;;4936816;29;20297;-79
2023/02/15 12:23:07;;;;;;;7.63;5.00;;;8.40;99.90;;;;;;4935475;29;20174;-79
2023/02/15 12:25:37;;;;;;;7.37;5.30;;;8.40;99.90;;;;;;4936658;29;20173;-79
2023/02/15 12:28:15;;;;;;;6.73;4.90;;;8.50;99.90;;;;;;4936672;29;20233;-79
2023/02/15 12:30:42;;;;;;;7.57;5.03;;;8.60;99.90;;;;;;4936502;29;20162;-79
2023/02/15 12:33:15;;;;;;;7.63;5.27;;;8.70;99.90;;;;;;4936493;29;20260;-78
2023/02/15 12:35:43;;;;;;;6.23;4.73;;;8.90;99.90;;;;;;4936517;29;20549;-79
2023/02/15 12:38:09;;;;;;;6.93;5.37;;;8.90;99.90;;;;;;4936397;29;20205;-78
2023/02/15 12:40:35;;;;;;;7.32;5.18;;;8.80;99.90;;;;;;4954965;29;20683;-79
2023/02/15 12:43:08;;;;;;;6.93;4.67;;;8.90;99.90;;;;;;4955519;29;20173;-78
2023/02/15 12:45:36;;;;;;;7.23;4.90;;;9.00;99.90;;;;;;4937693;29;20509;-78
2023/02/15 12:48:16;;;;;;;6.72;5.00;;;9.20;99.90;;;;;;4936358;29;20168;-79
2023/02/15 12:50:48;;;;;;;7.47;5.00;;;9.30;99.90;;;;;;4936267;29;20169;-79
2023/02/15 12:53:35;;;;;;;5.90;4.50;;;9.30;99.90;;;;;;4938626;29;20224;-79
2023/02/15 12:56:06;;;;;;;7.78;5.22;;;9.30;99.90;;;;;;4940316;29;20174;-78
2023/02/15 12:58:37;;;;;;;7.75;4.57;;;9.40;99.90;;;;;;4938664;29;20248;-79
2023/02/15 13:01:21;;;;;;;6.40;5.22;;;9.60;99.90;;;;;;4939724;29;20537;-79
2023/02/15 13:04:06;;;;;;;7.20;5.15;;;9.70;99.90;;;;;;4939865;29;20248;-79
2023/02/15 13:06:34;;;;;;;7.72;5.15;;;9.80;99.90;;;;;;4940172;29;20178;-79
2023/02/15 13:09:32;;;;;;;6.85;5.22;;;9.90;99.90;;;;;;4939925;29;20213;-78
2023/02/15 13:12:31;;;;;;;6.82;4.85;;;10.00;99.90;;;;;;4939213;29;20186;-80
2023/02/15 13:14:58;;;;;;;6.22;4.78;;;10.00;99.90;;;;;;4939612;28;20193;-80
2023/02/15 13:17:34;;;;;;;8.60;5.30;;;9.90;99.90;;;;;;4939871;29;20185;-79
2023/02/15 13:20:27;;;;;;;7.47;4.93;;;10.00;99.90;;;;;;4939524;29;20209;-79
2023/02/15 13:23:04;;;;;;;8.15;5.07;;;10.10;99.90;;;;;;4937505;29;20245;-80
2023/02/15 13:25:39;;;;;;;8.10;5.10;;;10.20;99.90;;;;;;4940107;29;20632;-78
2023/02/15 13:28:05;;;;;;;7.43;5.18;;;10.40;99.90;;;;;;4939756;29;20210;-79
2023/02/15 13:30:37;;;;;;;8.30;5.60;;;10.30;99.90;;;;;;4939128;29;20225;-80
2023/02/15 13:33:26;;;;;;;9.07;5.70;;;10.20;99.90;;;;;;4939504;29;20178;-81
2023/02/15 13:35:57;;;;;;;9.20;5.40;;;10.30;99.90;;;;;;4939849;29;20225;-79
2023/02/15 13:38:54;;;;;;;7.85;5.55;;;10.10;99.90;;;;;;4939663;29;20166;-81